Bara Zur — FGTL — position and weather

sailwx.info

Track history (hours):
 
Tides and Currents Weather Stations Pressure Air Temp Water Temp Dewpoint Dewpoint Depression Visibility Wind Speed Wind Dir Waves Ship Positions

Bara Zur

Last reported at 2017-Dec-16 20:11 UTC. Time now 2017-Dec-17 00:40 UTC.
Position N 47°45' W 005°28'.

Length 24 m.

Type: Fishing. MMSI: 227327000.

Date/timePositionNaut miles runAvg speedWind from/ knotsBaromVisibWave heightAir tempDewpointWater temp
2017-Dec-16 20:11N 47°45' W 005°28'0 0.0
2017-Dec-16 07:36N 47°46' W 005°28'10 2.4
2017-Dec-16 03:11N 47°54' W 005°37'1 2.6
2017-Dec-16 02:57N 47°54' W 005°38'9 1.1
2017-Dec-15 18:11N 47°46' W 005°32'5 2.9
2017-Dec-15 16:22N 47°51' W 005°32'5 2.6
2017-Dec-15 14:30N 47°54' W 005°37'1 1.8
2017-Dec-15 13:58N 47°53' W 005°38'1 1.9
2017-Dec-15 13:17N 47°52' W 005°37'3 1.8
2017-Dec-15 11:42N 47°49' W 005°37'3 1.9
2017-Dec-15 09:57N 47°46' W 005°35'4 2.0
2017-Dec-15 08:03N 47°45' W 005°30'0 1.9
2017-Dec-15 07:56N 47°45' W 005°30'2 3.0
2017-Dec-15 07:14N 47°43' W 005°31'2 1.2
2017-Dec-15 05:27N 47°45' W 005°34'1 1.9
2017-Dec-15 04:58N 47°46' W 005°34'1 1.8
2017-Dec-15 04:28N 47°47' W 005°35'1 1.9
2017-Dec-15 03:56N 47°48' W 005°35'2 1.6
2017-Dec-15 02:30N 47°49' W 005°37'2 1.2
2017-Dec-15 00:58N 47°48' W 005°40'7 1.1
2017-Dec-14 18:30N 47°46' W 005°30'1 1.0
2017-Dec-14 17:53N 47°46' W 005°31'1 1.0
2017-Dec-14 17:20N 47°47' W 005°32'0 1.1
2017-Dec-14 17:01N 47°47' W 005°32'1 1.2
2017-Dec-14 16:22N 47°47' W 005°33'0 1.0
2017-Dec-14 15:58N 47°47' W 005°33'2 1.7
2017-Dec-14 14:45N 47°49' W 005°35'0 1.6
2017-Dec-14 14:26N 47°49' W 005°36'1 1.6
2017-Dec-14 13:36N 47°50' W 005°38'0 1.5
2017-Dec-14 13:24N 47°50' W 005°38'5 0.8
2017-Dec-14 06:33N 47°47' W 005°32'3 2.7
2017-Dec-14 05:27N 47°50' W 005°31'6 2.4
2017-Dec-14 02:51N 47°54' W 005°37'1 1.6
2017-Dec-14 02:22N 47°54' W 005°38'2 1.8
2017-Dec-14 01:11N 47°52' W 005°40'1 1.8
2017-Dec-14 00:33N 47°51' W 005°40'9 1.3
2017-Dec-13 18:01N 47°45' W 005°30'1 2.4
2017-Dec-13 17:47N 47°45' W 005°29'11 2.2
2017-Dec-13 12:53N 47°55' W 005°36'1 1.5
2017-Dec-13 12:15N 47°55' W 005°37'26 1.4
2017-Dec-12 18:24N 47°45' W 005°02'4 9.2
2017-Dec-12 17:59N 47°45' W 004°56'18 9.1
2017-Dec-12 15:58N 47°45' W 004°29'6 6.2
2017-Dec-12 14:58N 47°46' W 004°20'2 0.5
2017-Dec-12 10:38N 47°48' W 004°17'0 0.0
2017-Dec-12 06:53N 47°48' W 004°17'  
Track history (hours):
 
Tides and Currents Weather Stations Pressure Air Temp Water Temp Dewpoint Dewpoint Depression Visibility Wind Speed Wind Dir Waves Ship Positions

Bara Zur

Last reported at 2017-Dec-16 20:11 UTC. Time now 2017-Dec-17 00:40 UTC.
Position N 47°45' W 005°28'.

Length 24 m.

Type: Fishing. MMSI: 227327000.

Date/timePositionNaut miles runAvg speedWind from/ knotsBaromVisibWave heightAir tempDewpointWater temp
2017-Dec-16 20:11N 47°45' W 005°28'0 0.0
2017-Dec-16 07:36N 47°46' W 005°28'10 2.4
2017-Dec-16 03:11N 47°54' W 005°37'1 2.6
2017-Dec-16 02:57N 47°54' W 005°38'9 1.1
2017-Dec-15 18:11N 47°46' W 005°32'5 2.9
2017-Dec-15 16:22N 47°51' W 005°32'5 2.6
2017-Dec-15 14:30N 47°54' W 005°37'1 1.8
2017-Dec-15 13:58N 47°53' W 005°38'1 1.9
2017-Dec-15 13:17N 47°52' W 005°37'3 1.8
2017-Dec-15 11:42N 47°49' W 005°37'3 1.9
2017-Dec-15 09:57N 47°46' W 005°35'4 2.0
2017-Dec-15 08:03N 47°45' W 005°30'0 1.9
2017-Dec-15 07:56N 47°45' W 005°30'2 3.0
2017-Dec-15 07:14N 47°43' W 005°31'2 1.2
2017-Dec-15 05:27N 47°45' W 005°34'1 1.9
2017-Dec-15 04:58N 47°46' W 005°34'1 1.8
2017-Dec-15 04:28N 47°47' W 005°35'1 1.9
2017-Dec-15 03:56N 47°48' W 005°35'2 1.6
2017-Dec-15 02:30N 47°49' W 005°37'2 1.2
2017-Dec-15 00:58N 47°48' W 005°40'7 1.1
2017-Dec-14 18:30N 47°46' W 005°30'1 1.0
2017-Dec-14 17:53N 47°46' W 005°31'1 1.0
2017-Dec-14 17:20N 47°47' W 005°32'0 1.1
2017-Dec-14 17:01N 47°47' W 005°32'1 1.2
2017-Dec-14 16:22N 47°47' W 005°33'0 1.0
2017-Dec-14 15:58N 47°47' W 005°33'2 1.7
2017-Dec-14 14:45N 47°49' W 005°35'0 1.6
2017-Dec-14 14:26N 47°49' W 005°36'1 1.6
2017-Dec-14 13:36N 47°50' W 005°38'0 1.5
2017-Dec-14 13:24N 47°50' W 005°38'5 0.8
2017-Dec-14 06:33N 47°47' W 005°32'3 2.7
2017-Dec-14 05:27N 47°50' W 005°31'6 2.4
2017-Dec-14 02:51N 47°54' W 005°37'1 1.6
2017-Dec-14 02:22N 47°54' W 005°38'2 1.8
2017-Dec-14 01:11N 47°52' W 005°40'1 1.8
2017-Dec-14 00:33N 47°51' W 005°40'9 1.3
2017-Dec-13 18:01N 47°45' W 005°30'1 2.4
2017-Dec-13 17:47N 47°45' W 005°29'11 2.2
2017-Dec-13 12:53N 47°55' W 005°36'1 1.5
2017-Dec-13 12:15N 47°55' W 005°37'26 1.4
2017-Dec-12 18:24N 47°45' W 005°02'4 9.2
2017-Dec-12 17:59N 47°45' W 004°56'18 9.1
2017-Dec-12 15:58N 47°45' W 004°29'6 6.2
2017-Dec-12 14:58N 47°46' W 004°20'2 0.5
2017-Dec-12 10:38N 47°48' W 004°17'0 0.0
2017-Dec-12 06:53N 47°48' W 004°17'  

Dump ship's entire track history